createdAt,value
2024-03-02T00:00:15.488Z,77.30
2024-03-02T00:02:46.086Z,77.20
2024-03-02T00:05:13.583Z,77.20
2024-03-02T00:07:42.336Z,77.30
2024-03-02T00:10:13.158Z,77.30
2024-03-02T00:12:40.450Z,77.30
2024-03-02T00:15:14.910Z,77.30
2024-03-02T00:17:41.770Z,77.30
2024-03-02T00:20:10.376Z,77.20
2024-03-02T00:22:38.367Z,77.20
2024-03-02T00:25:05.656Z,77.20
2024-03-02T00:27:33.590Z,77.10
2024-03-02T00:30:01.607Z,77.10
2024-03-02T00:32:29.517Z,77.00
2024-03-02T00:34:56.272Z,77.90
2024-03-02T00:37:23.061Z,77.00
2024-03-02T00:39:50.588Z,77.00
2024-03-02T00:42:17.380Z,77.10
2024-03-02T00:44:44.097Z,77.00
2024-03-02T00:47:10.825Z,77.00
2024-03-02T00:49:39.072Z,77.00
2024-03-02T00:52:08.039Z,77.00
2024-03-02T00:54:35.078Z,77.00
2024-03-02T00:57:02.244Z,77.00
2024-03-02T00:59:29.155Z,77.10
2024-03-02T01:01:56.006Z,77.20
2024-03-02T01:04:22.735Z,77.20
2024-03-02T01:06:49.798Z,77.30
2024-03-02T01:09:17.741Z,77.40
2024-03-02T01:11:44.512Z,77.50
2024-03-02T01:14:11.370Z,77.50
2024-03-02T01:16:38.149Z,77.60
2024-03-02T01:19:05.252Z,77.60
2024-03-02T01:21:32.237Z,77.70
2024-03-02T01:23:59.193Z,77.60
2024-03-02T01:26:25.869Z,77.60
2024-03-02T01:28:52.552Z,77.60
2024-03-02T01:31:19.396Z,77.60
2024-03-02T01:33:46.202Z,77.70
2024-03-02T01:36:13.049Z,77.60
2024-03-02T01:38:39.742Z,77.60
2024-03-02T01:41:06.523Z,77.60
2024-03-02T01:43:33.228Z,78.50
2024-03-02T01:46:00.444Z,78.50
2024-03-02T01:48:27.276Z,77.60
2024-03-02T01:50:54.049Z,78.50
2024-03-02T01:53:20.750Z,77.60
2024-03-02T01:55:47.603Z,77.60
2024-03-02T01:58:14.640Z,77.60
2024-03-02T02:00:42.471Z,77.60
2024-03-02T02:03:09.294Z,77.70
2024-03-02T02:05:36.301Z,77.70
2024-03-02T02:08:03.220Z,77.80
2024-03-02T02:10:29.991Z,77.80
2024-03-02T02:12:56.805Z,77.80
2024-03-02T02:15:24.706Z,77.80
2024-03-02T02:17:51.656Z,77.80
2024-03-02T02:20:18.436Z,77.80
2024-03-02T02:23:01.172Z,77.80
2024-03-02T02:25:28.460Z,77.80
2024-03-02T02:27:55.732Z,77.60
2024-03-02T02:30:23.847Z,77.60
2024-03-02T02:32:50.787Z,77.60
2024-03-02T02:35:17.631Z,77.50
2024-03-02T02:37:45.011Z,77.50
2024-03-02T02:40:12.487Z,77.50
2024-03-02T02:42:39.603Z,77.40
2024-03-02T02:45:06.884Z,77.40
2024-03-02T02:47:36.179Z,77.50
2024-03-02T02:50:07.851Z,77.40
2024-03-02T02:52:37.627Z,77.50
2024-03-02T02:55:05.352Z,77.60
2024-03-02T02:57:39.849Z,77.70
2024-03-02T03:00:11.424Z,77.90
2024-03-02T03:02:39.551Z,78.00
2024-03-02T03:05:10.231Z,78.10
2024-03-02T03:07:37.582Z,78.20
2024-03-02T03:10:05.261Z,78.40
2024-03-02T03:12:35.279Z,78.50
2024-03-02T03:15:02.479Z,78.40
2024-03-02T03:17:29.707Z,78.40
2024-03-02T03:19:56.610Z,78.40
2024-03-02T03:22:23.524Z,78.50
2024-03-02T03:24:50.247Z,78.50
2024-03-02T03:27:17.024Z,78.40
2024-03-02T03:29:43.744Z,78.40
2024-03-02T03:32:10.476Z,78.40
2024-03-02T03:34:37.438Z,78.40
2024-03-02T03:37:04.267Z,78.30
2024-03-02T03:39:30.943Z,78.30
2024-03-02T03:41:57.728Z,79.30
2024-03-02T03:44:24.685Z,78.30
2024-03-02T03:46:51.374Z,78.40
2024-03-02T03:49:18.519Z,78.20
2024-03-02T03:51:45.399Z,78.20
2024-03-02T03:54:12.407Z,78.20
2024-03-02T03:56:39.326Z,78.20
2024-03-02T03:59:06.076Z,78.30
2024-03-02T04:01:33.027Z,78.20
2024-03-02T04:03:59.868Z,78.20
2024-03-02T04:06:26.834Z,78.20
2024-03-02T04:08:54.356Z,78.10
2024-03-02T04:11:21.092Z,78.20
2024-03-02T04:13:47.804Z,78.10
2024-03-02T04:16:14.448Z,78.30
2024-03-02T04:18:41.148Z,78.40
2024-03-02T04:21:08.063Z,78.50
2024-03-02T04:23:34.773Z,78.40
2024-03-02T04:26:01.482Z,78.50
2024-03-02T04:28:28.175Z,78.60
2024-03-02T04:30:54.986Z,78.70
2024-03-02T04:33:21.964Z,78.70
2024-03-02T04:35:48.716Z,78.80
2024-03-02T04:38:15.423Z,78.60
2024-03-02T04:40:42.263Z,78.70
2024-03-02T04:43:10.508Z,78.70
2024-03-02T04:45:39.354Z,78.60
2024-03-02T04:48:06.426Z,78.60
2024-03-02T04:50:33.237Z,78.60
2024-03-02T04:52:59.932Z,78.50
2024-03-02T04:55:29.556Z,78.50
2024-03-02T04:57:57.026Z,78.50
2024-03-02T05:00:24.404Z,78.70
2024-03-02T05:02:52.389Z,78.70
2024-03-02T05:05:19.187Z,78.90
2024-03-02T05:07:46.029Z,79.10
2024-03-02T05:10:13.044Z,79.10
2024-03-02T05:12:46.057Z,79.10
2024-03-02T05:15:13.549Z,80.00
2024-03-02T05:17:40.782Z,79.20
2024-03-02T05:20:09.200Z,79.10
2024-03-02T05:22:36.519Z,79.10
2024-03-02T05:25:03.813Z,79.10
2024-03-02T05:27:30.642Z,79.00
2024-03-02T05:29:57.500Z,79.00
2024-03-02T05:32:24.429Z,79.00
2024-03-02T05:34:51.774Z,78.90
2024-03-02T05:37:18.741Z,78.80
2024-03-02T05:39:45.519Z,78.90
2024-03-02T05:42:12.498Z,78.80
2024-03-02T05:44:39.247Z,78.90
2024-03-02T05:47:06.255Z,78.80
2024-03-02T05:49:32.975Z,78.70
2024-03-02T05:51:59.722Z,78.80
2024-03-02T05:54:26.524Z,78.80
2024-03-02T05:56:53.374Z,78.70
2024-03-02T05:59:20.542Z,78.80
2024-03-02T06:01:47.952Z,78.80
2024-03-02T06:04:15.078Z,78.80
2024-03-02T06:06:41.977Z,78.80
2024-03-02T06:09:09.102Z,78.70
2024-03-02T06:11:39.368Z,78.70
2024-03-02T06:14:07.366Z,78.70
2024-03-02T06:16:36.595Z,78.70
2024-03-02T06:19:03.765Z,78.70
2024-03-02T06:21:31.137Z,78.80
2024-03-02T06:23:58.338Z,78.70
2024-03-02T06:26:26.239Z,78.70
2024-03-02T06:28:53.506Z,78.70
2024-03-02T06:31:20.398Z,78.70
2024-03-02T06:33:47.241Z,78.70
2024-03-02T06:36:14.128Z,78.70
2024-03-02T06:38:43.534Z,78.70
2024-03-02T06:41:10.661Z,78.80
2024-03-02T06:43:37.635Z,78.80
2024-03-02T06:46:04.620Z,78.80
2024-03-02T06:48:31.713Z,78.80
2024-03-02T06:51:01.366Z,78.80
2024-03-02T06:53:28.474Z,78.80
2024-03-02T06:55:57.497Z,78.90
2024-03-02T06:58:24.770Z,78.90
2024-03-02T07:00:54.034Z,79.10
2024-03-02T07:03:20.891Z,79.10
2024-03-02T07:05:49.553Z,79.00
2024-03-02T07:08:16.465Z,79.10
2024-03-02T07:10:43.093Z,79.10
2024-03-02T07:13:09.871Z,79.10
2024-03-02T07:15:55.375Z,79.20
2024-03-02T07:18:22.402Z,79.30
2024-03-02T07:20:53.432Z,79.30
2024-03-02T07:23:22.777Z,79.40
2024-03-02T07:28:19.300Z,79.50
2024-03-02T07:30:45.959Z,79.60
2024-03-02T07:33:13.044Z,79.80
2024-03-02T07:35:39.893Z,79.90
2024-03-02T07:38:06.934Z,80.10
2024-03-02T07:40:33.806Z,80.20
2024-03-02T07:43:00.633Z,80.40
2024-03-02T07:45:27.381Z,80.40
2024-03-02T07:47:54.652Z,80.50
2024-03-02T07:50:21.423Z,80.60
2024-03-02T07:52:48.372Z,80.70
2024-03-02T07:55:15.272Z,80.90
2024-03-02T07:57:42.128Z,81.00
2024-03-02T08:00:10.422Z,81.00
2024-03-02T08:02:41.315Z,81.10
2024-03-02T08:05:08.206Z,81.00
2024-03-02T08:07:35.421Z,81.10
2024-03-02T08:10:02.358Z,81.00
2024-03-02T08:12:29.098Z,81.00
2024-03-02T08:14:55.867Z,81.00
2024-03-02T08:17:22.819Z,81.00
2024-03-02T08:19:49.555Z,81.00
2024-03-02T08:22:16.450Z,81.00
2024-03-02T08:24:43.526Z,81.00
2024-03-02T08:27:10.503Z,81.00
2024-03-02T08:29:37.386Z,81.20
2024-03-02T08:32:04.456Z,81.30
2024-03-02T08:34:31.276Z,81.40
2024-03-02T08:36:58.194Z,81.50
2024-03-02T08:39:24.951Z,81.50
2024-03-02T08:41:52.460Z,81.50
2024-03-02T08:44:19.330Z,81.50
2024-03-02T08:46:46.237Z,81.30
2024-03-02T08:49:13.356Z,81.40
2024-03-02T08:51:40.215Z,81.30
2024-03-02T08:54:07.262Z,81.20
2024-03-02T08:56:34.060Z,81.10
2024-03-02T08:59:00.904Z,81.20
2024-03-02T09:01:27.844Z,81.10
2024-03-02T09:03:54.797Z,81.10
2024-03-02T09:06:22.302Z,81.20
2024-03-02T09:08:50.655Z,81.30
2024-03-02T09:11:17.343Z,81.50
2024-03-02T09:13:44.987Z,81.50
2024-03-02T09:16:12.532Z,81.60
2024-03-02T09:18:39.481Z,81.80
2024-03-02T09:21:06.839Z,81.90
2024-03-02T09:23:33.665Z,81.90
2024-03-02T09:26:00.924Z,81.90
2024-03-02T09:28:27.664Z,81.90
2024-03-02T09:30:56.836Z,82.00
2024-03-02T09:33:24.634Z,81.80
2024-03-02T09:35:52.727Z,81.70
2024-03-02T09:38:20.649Z,81.70
2024-03-02T09:40:47.395Z,81.80
2024-03-02T09:43:14.725Z,81.70
2024-03-02T09:45:41.778Z,81.70
2024-03-02T09:48:08.849Z,81.80
2024-03-02T09:50:35.671Z,81.80
2024-03-02T09:53:03.059Z,81.80
2024-03-02T09:55:29.792Z,81.80
2024-03-02T09:57:57.266Z,81.80
2024-03-02T10:00:24.027Z,81.80
2024-03-02T10:02:50.903Z,81.80
2024-03-02T10:05:29.378Z,81.70
2024-03-02T10:08:03.168Z,81.80
2024-03-02T10:10:37.148Z,82.00
2024-03-02T10:13:07.600Z,82.10
2024-03-02T10:15:34.865Z,82.10
2024-03-02T10:18:01.860Z,81.70
2024-03-02T10:20:33.784Z,81.70
2024-03-02T10:23:17.500Z,81.50
2024-03-02T10:25:51.953Z,81.60
2024-03-02T10:28:25.045Z,81.60
2024-03-02T10:30:54.436Z,81.30
2024-03-02T10:33:21.689Z,81.40
2024-03-02T10:35:49.828Z,81.40
2024-03-02T10:38:16.631Z,81.50
2024-03-02T10:40:47.667Z,81.50
2024-03-02T10:43:14.605Z,81.30
2024-03-02T10:45:41.320Z,81.30
2024-03-02T10:48:08.553Z,81.60
2024-03-02T10:50:35.228Z,81.60
2024-03-02T10:53:02.230Z,81.40
2024-03-02T10:55:29.200Z,81.30
2024-03-02T10:57:57.624Z,81.40
2024-03-02T11:00:28.052Z,81.50
2024-03-02T11:02:58.928Z,81.60
2024-03-02T11:05:30.506Z,81.70
2024-03-02T11:08:02.237Z,81.70
2024-03-02T11:10:37.792Z,81.90
2024-03-02T11:13:10.067Z,81.70
2024-03-02T11:15:40.056Z,81.60
2024-03-02T11:18:10.318Z,81.60
2024-03-02T11:20:39.515Z,81.70
2024-03-02T11:23:07.694Z,81.90
2024-03-02T11:25:34.646Z,81.90
2024-03-02T11:28:07.736Z,81.90
2024-03-02T11:30:35.560Z,81.90
2024-03-02T11:33:11.482Z,82.00
2024-03-02T11:35:43.920Z,82.20
2024-03-02T11:38:11.049Z,82.40
2024-03-02T11:40:39.878Z,82.60
2024-03-02T11:43:07.497Z,82.70
2024-03-02T11:45:34.857Z,82.90
2024-03-02T11:48:02.036Z,83.10
2024-03-02T11:50:31.922Z,83.10
2024-03-02T11:52:59.305Z,83.50
2024-03-02T11:55:30.097Z,83.50
2024-03-02T11:57:57.226Z,83.60
2024-03-02T12:00:24.123Z,83.90
2024-03-02T12:03:07.133Z,83.90
2024-03-02T12:05:34.274Z,83.90
2024-03-02T12:08:01.727Z,83.90
2024-03-02T12:10:29.131Z,83.90
2024-03-02T12:13:07.661Z,83.90
2024-03-02T12:15:35.574Z,83.70
2024-03-02T12:18:03.121Z,83.60
2024-03-02T12:20:32.036Z,83.50
2024-03-02T12:22:59.622Z,84.40
2024-03-02T12:25:26.856Z,83.70
2024-03-02T12:27:55.302Z,83.70
2024-03-02T12:30:22.633Z,83.70
2024-03-02T12:32:49.996Z,83.50
2024-03-02T12:35:18.412Z,83.50
2024-03-02T12:37:49.698Z,83.60
2024-03-02T12:40:19.227Z,83.70
2024-03-02T12:42:46.839Z,83.70
2024-03-02T12:45:14.101Z,83.80
2024-03-02T12:47:41.412Z,83.90
2024-03-02T12:50:08.884Z,84.00
2024-03-02T12:52:35.921Z,83.90
2024-03-02T12:55:05.200Z,83.70
2024-03-02T12:57:33.204Z,83.70
2024-03-02T13:00:00.541Z,83.60
2024-03-02T13:02:31.940Z,83.70
2024-03-02T13:04:58.984Z,83.80
2024-03-02T13:07:26.406Z,84.00
2024-03-02T13:09:53.677Z,84.10
2024-03-02T13:12:20.586Z,84.20
2024-03-02T13:14:53.724Z,84.20
2024-03-02T13:17:20.768Z,84.10
2024-03-02T13:19:54.362Z,84.10
2024-03-02T13:22:21.663Z,83.90
2024-03-02T13:24:49.202Z,83.90
2024-03-02T13:27:17.027Z,83.60
2024-03-02T13:29:43.926Z,83.40
2024-03-02T13:32:10.961Z,83.20
2024-03-02T13:34:38.362Z,82.90
2024-03-02T13:37:06.790Z,82.30
2024-03-02T13:39:33.882Z,82.40
2024-03-02T13:42:08.779Z,82.30
2024-03-02T13:44:35.675Z,82.40
2024-03-02T13:47:02.655Z,82.50
2024-03-02T13:49:38.662Z,82.50
2024-03-02T13:52:13.416Z,82.40
2024-03-02T13:54:44.587Z,82.10
2024-03-02T13:57:11.853Z,82.10
2024-03-02T13:59:39.059Z,81.90
2024-03-02T14:02:09.415Z,81.80
2024-03-02T14:04:56.490Z,81.60
2024-03-02T14:07:23.270Z,81.60
2024-03-02T14:09:50.097Z,81.70
2024-03-02T14:12:17.104Z,81.60
2024-03-02T14:14:43.834Z,81.50
2024-03-02T14:17:15.692Z,81.60
2024-03-02T14:19:42.602Z,81.60
2024-03-02T14:22:09.545Z,81.60
2024-03-02T14:24:36.446Z,81.50
2024-03-02T14:27:10.990Z,81.40
2024-03-02T14:29:46.964Z,81.40
2024-03-02T14:32:13.629Z,81.30
2024-03-02T14:34:40.785Z,81.20
2024-03-02T14:37:07.777Z,81.10
2024-03-02T14:39:36.065Z,81.10
2024-03-02T14:42:03.164Z,81.00
2024-03-02T14:44:29.982Z,80.80
2024-03-02T14:46:56.730Z,80.70
2024-03-02T14:49:23.832Z,80.60
2024-03-02T14:51:50.886Z,80.60
2024-03-02T14:54:17.926Z,80.60
2024-03-02T14:56:45.104Z,80.60
2024-03-02T14:59:12.155Z,80.70
2024-03-02T15:01:39.129Z,80.60
2024-03-02T15:04:06.460Z,80.60
2024-03-02T15:06:34.153Z,80.60
2024-03-02T15:09:02.681Z,80.50
2024-03-02T15:11:31.319Z,80.50
2024-03-02T15:13:58.140Z,80.50
2024-03-02T15:16:25.544Z,80.40
2024-03-02T15:18:52.438Z,80.30
2024-03-02T15:21:21.137Z,80.20
2024-03-02T15:23:49.264Z,80.10
2024-03-02T15:26:16.697Z,80.10
2024-03-02T15:28:43.994Z,79.80
2024-03-02T15:31:10.736Z,79.80
2024-03-02T15:33:38.029Z,79.60
2024-03-02T15:36:05.947Z,79.60
2024-03-02T15:38:35.597Z,79.50
2024-03-02T15:41:07.507Z,79.50
2024-03-02T15:43:40.091Z,79.50
2024-03-02T15:46:08.098Z,79.40
2024-03-02T15:48:35.987Z,79.30
2024-03-02T15:51:06.523Z,79.20
2024-03-02T15:53:34.078Z,79.20
2024-03-02T15:56:00.763Z,79.30
2024-03-02T15:58:27.704Z,79.20
2024-03-02T16:00:54.904Z,79.00
2024-03-02T16:03:22.063Z,79.00
2024-03-02T16:05:48.913Z,79.00
2024-03-02T16:08:16.085Z,78.70
2024-03-02T16:10:43.013Z,78.70
2024-03-02T16:13:10.157Z,78.50
2024-03-02T16:15:37.003Z,78.50
2024-03-02T16:18:04.134Z,78.40
2024-03-02T16:20:31.212Z,78.30
2024-03-02T16:22:58.277Z,78.20
2024-03-02T16:25:25.840Z,77.90
2024-03-02T16:27:53.236Z,77.70
2024-03-02T16:30:25.646Z,77.70
2024-03-02T16:32:52.581Z,77.70
2024-03-02T16:35:19.296Z,77.40
2024-03-02T16:37:47.205Z,77.50
2024-03-02T16:40:16.955Z,77.40
2024-03-02T16:42:43.891Z,77.00
2024-03-02T16:45:10.704Z,76.80
2024-03-02T16:47:37.524Z,76.70
2024-03-02T16:50:08.068Z,76.70
2024-03-02T16:52:34.895Z,76.50
2024-03-02T16:55:04.770Z,76.10
2024-03-02T16:57:32.649Z,76.00
2024-03-02T16:59:59.932Z,76.00
2024-03-02T17:02:27.191Z,75.80
2024-03-02T17:04:54.327Z,75.60
2024-03-02T17:07:21.396Z,75.50
2024-03-02T17:09:48.459Z,75.10
2024-03-02T17:12:15.712Z,75.90
2024-03-02T17:14:42.638Z,75.00
2024-03-02T17:17:09.433Z,75.00
2024-03-02T17:19:36.660Z,74.80
2024-03-02T17:22:03.472Z,74.60
2024-03-02T17:24:30.333Z,74.50
2024-03-02T17:26:59.201Z,74.40
2024-03-02T17:29:25.957Z,74.30
2024-03-02T17:31:52.730Z,74.10
2024-03-02T17:34:19.602Z,74.00
2024-03-02T17:36:46.572Z,73.80
2024-03-02T17:39:13.316Z,73.70
2024-03-02T17:41:40.113Z,73.70
2024-03-02T17:44:07.250Z,73.70
2024-03-02T17:46:34.028Z,73.60
2024-03-02T17:49:00.959Z,73.70
2024-03-02T17:51:27.860Z,73.80
2024-03-02T17:53:54.522Z,73.80
2024-03-02T17:56:21.323Z,73.80
2024-03-02T17:58:48.138Z,73.80
2024-03-02T18:01:16.447Z,73.60
2024-03-02T18:03:43.552Z,73.60
2024-03-02T18:06:10.546Z,73.50
2024-03-02T18:08:39.219Z,73.50
2024-03-02T18:11:07.848Z,73.40
2024-03-02T18:13:35.145Z,73.20
2024-03-02T18:16:02.750Z,73.10
2024-03-02T18:18:29.694Z,73.00
2024-03-02T18:20:56.587Z,73.00
2024-03-02T18:23:23.485Z,73.00
2024-03-02T18:25:50.259Z,73.00
2024-03-02T18:28:17.321Z,72.90
2024-03-02T18:30:44.174Z,72.80
2024-03-02T18:33:10.896Z,72.70
2024-03-02T18:35:37.880Z,72.70
2024-03-02T18:38:05.239Z,72.80
2024-03-02T18:40:32.110Z,72.70
2024-03-02T18:43:00.106Z,72.70
2024-03-02T18:45:27.152Z,72.70
2024-03-02T18:47:54.950Z,72.70
2024-03-02T18:50:22.023Z,72.60
2024-03-02T18:52:48.983Z,72.60
2024-03-02T18:55:15.869Z,72.60
2024-03-02T18:57:42.849Z,72.40
2024-03-02T19:00:14.024Z,72.50
2024-03-02T19:02:42.364Z,72.50
2024-03-02T19:05:09.722Z,72.50
2024-03-02T19:07:37.067Z,72.60
2024-03-02T19:10:05.979Z,72.50
2024-03-02T19:12:33.702Z,72.50
2024-03-02T19:15:01.779Z,72.60
2024-03-02T19:17:29.007Z,72.70
2024-03-02T19:19:55.691Z,72.70
2024-03-02T19:22:24.804Z,72.70
2024-03-02T19:24:51.448Z,72.60
2024-03-02T19:27:18.650Z,72.60
2024-03-02T19:29:46.016Z,72.70
2024-03-02T19:32:15.420Z,72.60
2024-03-02T19:34:47.639Z,72.60
2024-03-02T19:37:14.503Z,72.50
2024-03-02T19:39:43.156Z,72.50
2024-03-02T19:42:10.164Z,72.30
2024-03-02T19:44:36.856Z,72.30
2024-03-02T19:47:03.741Z,72.30
2024-03-02T19:49:30.721Z,72.20
2024-03-02T19:51:57.554Z,72.30
2024-03-02T19:54:24.618Z,72.40
2024-03-02T19:56:53.116Z,72.10
2024-03-02T19:59:20.006Z,72.20
2024-03-02T20:01:46.836Z,72.10
2024-03-02T20:04:13.790Z,72.20
2024-03-02T20:06:42.990Z,72.30
2024-03-02T20:09:09.753Z,72.40
2024-03-02T20:11:36.424Z,72.50
2024-03-02T20:14:03.246Z,72.30
2024-03-02T20:16:30.058Z,72.30
2024-03-02T20:18:57.094Z,72.30
2024-03-02T20:21:23.894Z,72.40
2024-03-02T20:23:50.811Z,72.40
2024-03-02T20:26:20.341Z,72.30
2024-03-02T20:28:48.919Z,72.40
2024-03-02T20:31:15.776Z,72.40
2024-03-02T20:33:42.779Z,72.50
2024-03-02T20:36:13.700Z,72.50
2024-03-02T20:38:41.522Z,72.50
2024-03-02T20:41:18.340Z,72.50
2024-03-02T20:43:45.615Z,72.40
2024-03-02T20:46:12.866Z,72.40
2024-03-02T20:48:40.295Z,72.40
2024-03-02T20:51:09.974Z,72.50
2024-03-02T20:53:37.021Z,72.50
2024-03-02T20:56:03.874Z,72.40
2024-03-02T20:58:30.714Z,72.40
2024-03-02T21:00:57.537Z,72.40
2024-03-02T21:03:24.537Z,72.30
2024-03-02T21:05:51.243Z,72.40
2024-03-02T21:08:17.939Z,72.30
2024-03-02T21:10:46.961Z,72.40
2024-03-02T21:13:15.356Z,73.30
2024-03-02T21:15:42.135Z,72.30
2024-03-02T21:18:09.063Z,72.30
2024-03-02T21:20:36.007Z,72.30
2024-03-02T21:23:03.486Z,72.30
2024-03-02T21:25:35.045Z,72.40
2024-03-02T21:28:02.125Z,72.50
2024-03-02T21:30:31.458Z,72.40
2024-03-02T21:32:58.247Z,72.30
2024-03-02T21:35:25.082Z,72.40
2024-03-02T21:37:51.910Z,72.40
2024-03-02T21:40:20.208Z,72.40
2024-03-02T21:42:47.219Z,72.40
2024-03-02T21:45:14.234Z,72.40
2024-03-02T21:47:41.123Z,72.40
2024-03-02T21:50:08.400Z,72.50
2024-03-02T21:52:35.183Z,72.40
2024-03-02T21:55:02.078Z,72.50
2024-03-02T21:57:28.910Z,72.60
2024-03-02T21:59:55.694Z,72.60
2024-03-02T22:02:22.950Z,72.50
2024-03-02T22:04:49.766Z,72.50
2024-03-02T22:07:16.444Z,72.60
2024-03-02T22:09:43.307Z,72.70
2024-03-02T22:12:12.447Z,72.60
2024-03-02T22:14:39.415Z,72.70
2024-03-02T22:17:06.305Z,72.70
2024-03-02T22:19:32.929Z,72.70
2024-03-02T22:21:59.818Z,72.80
2024-03-02T22:24:27.874Z,72.90
2024-03-02T22:26:54.603Z,72.80
2024-03-02T22:29:21.577Z,72.80
2024-03-02T22:31:48.370Z,72.90
2024-03-02T22:34:15.177Z,72.90
2024-03-02T22:36:41.989Z,72.90
2024-03-02T22:39:09.247Z,72.90
2024-03-02T22:41:36.012Z,72.90
2024-03-02T22:44:02.712Z,72.90
2024-03-02T22:46:29.687Z,73.00
2024-03-02T22:48:56.527Z,72.90
2024-03-02T22:51:26.903Z,72.90
2024-03-02T22:53:53.817Z,73.00
2024-03-02T22:56:23.453Z,73.00
2024-03-02T22:58:50.120Z,73.00
2024-03-02T23:01:17.925Z,73.00
2024-03-02T23:03:44.773Z,73.00
2024-03-02T23:06:11.505Z,73.10
2024-03-02T23:08:38.297Z,73.20
2024-03-02T23:11:05.094Z,73.10
2024-03-02T23:13:32.137Z,73.10
2024-03-02T23:15:59.163Z,73.20
2024-03-02T23:18:26.628Z,73.20
2024-03-02T23:20:53.561Z,73.30
2024-03-02T23:23:20.271Z,73.20
2024-03-02T23:25:47.711Z,73.30
2024-03-02T23:28:14.611Z,73.30
2024-03-02T23:30:41.416Z,73.30
2024-03-02T23:33:08.173Z,73.40
2024-03-02T23:35:34.978Z,73.40
2024-03-02T23:38:01.740Z,73.30
2024-03-02T23:40:51.447Z,73.30
2024-03-02T23:43:18.344Z,73.30
2024-03-02T23:45:45.189Z,73.30
2024-03-02T23:48:12.051Z,73.30
2024-03-02T23:50:38.805Z,73.40
2024-03-02T23:53:05.600Z,73.50
2024-03-02T23:55:42.918Z,73.40
2024-03-02T23:58:18.381Z,73.40
